createdAt,value
2022-11-14T00:02:29.983Z,100379.09
2022-11-14T00:05:35.441Z,100373.03
2022-11-14T00:08:38.167Z,100377.31
2022-11-14T00:11:40.884Z,100382.75
2022-11-14T00:14:43.642Z,100383.69
2022-11-14T00:17:46.719Z,100380.16
2022-11-14T00:20:52.461Z,100387.38
2022-11-14T00:23:55.419Z,100371.34
2022-11-14T00:26:58.190Z,100373.19
2022-11-14T00:30:00.903Z,100373.22
2022-11-14T00:33:04.053Z,100370.59
2022-11-14T00:36:08.585Z,100380.47
2022-11-14T00:39:13.894Z,100379.59
2022-11-14T00:42:16.538Z,100375.16
2022-11-14T00:45:19.502Z,100376.16
2022-11-14T00:48:22.384Z,100373.50
2022-11-14T00:51:26.621Z,100380.75
2022-11-14T00:54:29.273Z,100372.75
2022-11-14T00:57:32.326Z,100364.72
2022-11-14T01:00:35.524Z,100358.56
2022-11-14T01:03:38.251Z,100370.19
2022-11-14T01:06:42.654Z,100370.19
2022-11-14T01:09:45.775Z,100358.66
2022-11-14T01:12:48.742Z,100361.31
2022-11-14T01:15:52.429Z,100362.28
2022-11-14T01:18:55.094Z,100357.84
2022-11-14T01:22:03.227Z,100358.72
2022-11-14T01:25:09.620Z,100351.66
2022-11-14T01:28:15.037Z,100350.81
2022-11-14T01:31:19.875Z,100342.84
2022-11-14T01:34:22.650Z,100340.16
2022-11-14T01:37:26.727Z,100332.16
2022-11-14T01:40:29.546Z,100312.69
2022-11-14T01:43:34.426Z,100329.53
2022-11-14T01:46:40.100Z,100326.91
2022-11-14T01:49:46.925Z,100321.59
2022-11-14T01:52:51.330Z,100322.41
2022-11-14T01:55:56.355Z,100317.16
2022-11-14T01:59:04.771Z,100322.59
2022-11-14T02:02:13.461Z,100318.19
2022-11-14T02:05:18.449Z,100309.25
2022-11-14T02:08:24.293Z,100304.88
2022-11-14T02:11:30.982Z,100296.88
2022-11-14T02:14:35.527Z,100291.53
2022-11-14T02:17:38.218Z,100283.56
2022-11-14T02:20:43.802Z,100280.00
2022-11-14T02:23:46.516Z,100278.25
2022-11-14T02:26:49.249Z,100290.75
2022-11-14T02:29:51.995Z,100286.31
2022-11-14T02:33:10.391Z,100279.19
2022-11-14T02:36:15.566Z,100273.03
2022-11-14T02:39:18.710Z,100265.00
2022-11-14T02:42:21.466Z,100265.97
2022-11-14T02:45:24.625Z,100254.38
2022-11-14T02:48:27.437Z,100256.19
2022-11-14T02:51:32.015Z,100262.41
2022-11-14T02:54:34.706Z,100263.31
2022-11-14T02:57:37.842Z,100257.09
2022-11-14T03:01:05.990Z,100254.44
2022-11-14T03:04:04.594Z,100261.63
2022-11-14T03:07:08.776Z,100254.50
2022-11-14T03:10:12.039Z,100256.19
2022-11-14T03:13:15.263Z,100255.25
2022-11-14T03:16:18.373Z,100253.34
2022-11-14T03:19:21.280Z,100255.84
2022-11-14T03:22:25.773Z,100269.81
2022-11-14T03:25:28.836Z,100261.59
2022-11-14T03:28:31.870Z,100253.13
2022-11-14T03:31:35.432Z,100245.06
2022-11-14T03:34:38.539Z,100241.22
2022-11-14T03:37:43.091Z,100229.41
2022-11-14T03:40:45.968Z,100217.78
2022-11-14T03:43:48.708Z,100220.25
2022-11-14T03:46:53.151Z,100225.28
2022-11-14T03:49:55.816Z,100222.53
2022-11-14T03:53:00.277Z,100216.88
2022-11-14T03:56:03.333Z,100212.88
2022-11-14T03:59:06.669Z,100207.31
2022-11-14T04:02:09.786Z,100207.84
2022-11-14T04:05:13.266Z,100192.44
2022-11-14T04:08:17.473Z,100196.66
2022-11-14T04:11:20.699Z,100191.81
2022-11-14T04:14:23.413Z,100198.16
2022-11-14T04:17:26.539Z,100204.31
2022-11-14T04:20:29.196Z,100194.41
2022-11-14T04:23:33.817Z,100193.13
2022-11-14T04:26:36.483Z,100214.66
2022-11-14T04:29:39.200Z,100203.88
2022-11-14T04:32:41.916Z,100200.19
2022-11-14T04:35:44.731Z,100189.31
2022-11-14T04:38:49.188Z,100191.09
2022-11-14T04:41:52.231Z,100188.34
2022-11-14T04:44:55.374Z,100182.78
2022-11-14T04:47:58.057Z,100185.38
2022-11-14T04:51:00.984Z,100201.59
2022-11-14T04:54:05.241Z,100196.84
2022-11-14T04:57:07.952Z,100184.53
2022-11-14T05:00:11.983Z,100192.53
2022-11-14T05:03:14.912Z,100194.13
2022-11-14T05:06:18.065Z,100185.06
2022-11-14T05:09:22.082Z,100181.50
2022-11-14T05:12:25.113Z,100188.44
2022-11-14T05:15:27.827Z,100195.81
2022-11-14T05:18:31.118Z,100198.50
2022-11-14T05:21:34.118Z,100198.44
2022-11-14T05:24:38.720Z,100190.09
2022-11-14T05:27:41.733Z,100188.28
2022-11-14T05:30:44.413Z,100197.47
2022-11-14T05:33:48.291Z,100205.69
2022-11-14T05:36:51.016Z,100189.19
2022-11-14T05:39:55.551Z,100190.91
2022-11-14T05:42:58.271Z,100181.19
2022-11-14T05:46:02.162Z,100184.53
2022-11-14T05:49:04.885Z,100183.81
2022-11-14T05:52:07.950Z,100186.25
2022-11-14T05:55:12.418Z,100189.91
2022-11-14T05:58:15.216Z,100189.53
2022-11-14T06:01:20.527Z,100181.47
2022-11-14T06:04:23.639Z,100173.56
2022-11-14T06:07:26.372Z,100175.31
2022-11-14T06:10:30.938Z,100182.00
2022-11-14T06:13:34.764Z,100175.66
2022-11-14T06:16:37.503Z,100141.88
2022-11-14T06:19:40.212Z,100166.50
2022-11-14T06:22:43.102Z,100168.72
2022-11-14T06:25:47.180Z,100169.84
2022-11-14T06:28:50.778Z,100167.72
2022-11-14T06:31:53.453Z,100181.16
2022-11-14T06:34:56.306Z,100202.88
2022-11-14T06:38:00.863Z,100223.31
2022-11-14T06:41:06.150Z,100227.69
2022-11-14T06:44:09.661Z,100213.13
2022-11-14T06:47:12.652Z,100216.44
2022-11-14T06:50:15.448Z,100203.19
2022-11-14T06:53:18.204Z,100205.03
2022-11-14T06:56:22.629Z,100195.31
2022-11-14T06:59:26.267Z,100191.78
2022-11-14T07:02:29.001Z,100184.84
2022-11-14T07:05:31.748Z,100200.34
2022-11-14T07:08:35.389Z,100224.81
2022-11-14T07:11:39.963Z,100226.13
2022-11-14T07:14:42.702Z,100226.13
2022-11-14T07:17:45.475Z,100225.13
2022-11-14T07:20:48.720Z,100218.03
2022-11-14T07:23:51.818Z,100205.22
2022-11-14T07:26:55.839Z,100218.56
2022-11-14T07:29:58.843Z,100227.78
2022-11-14T07:33:01.934Z,100223.44
2022-11-14T07:36:05.212Z,100226.25
2022-11-14T07:39:08.175Z,100231.47
2022-11-14T07:42:12.294Z,100225.91
2022-11-14T07:45:15.802Z,100226.56
2022-11-14T07:48:19.464Z,100224.72
2022-11-14T07:51:22.577Z,100227.56
2022-11-14T07:54:25.313Z,100215.53
2022-11-14T07:57:29.431Z,100227.34
2022-11-14T08:00:32.700Z,100227.00
2022-11-14T08:03:37.919Z,100230.50
2022-11-14T08:06:44.193Z,100235.63
2022-11-14T08:09:46.921Z,100235.25
2022-11-14T08:13:17.485Z,100247.50
2022-11-14T08:16:22.342Z,100250.19
2022-11-14T08:19:26.486Z,100272.63
2022-11-14T08:22:29.409Z,100262.59
2022-11-14T08:25:32.095Z,100266.94
2022-11-14T08:28:36.588Z,100273.13
2022-11-14T08:31:39.394Z,100266.66
2022-11-14T08:34:42.361Z,100249.78
2022-11-14T08:37:45.525Z,100260.84
2022-11-14T08:40:48.397Z,100252.06
2022-11-14T08:43:52.803Z,100238.22
2022-11-14T08:46:55.545Z,100235.50
2022-11-14T08:49:58.417Z,100243.16
2022-11-14T08:53:01.177Z,100249.78
2022-11-14T08:56:04.429Z,100248.03
2022-11-14T08:59:08.413Z,100246.50
2022-11-14T09:02:12.460Z,100241.16
2022-11-14T09:05:15.507Z,100238.50
2022-11-14T09:08:18.336Z,100239.94
2022-11-14T09:11:21.259Z,100232.25
2022-11-14T09:14:25.963Z,100226.81
2022-11-14T09:17:28.784Z,100188.66
2022-11-14T09:20:34.178Z,100222.91
2022-11-14T09:23:40.365Z,100228.97
2022-11-14T09:26:43.091Z,100207.91
2022-11-14T09:29:47.591Z,100214.97
2022-11-14T09:32:50.371Z,100193.16
2022-11-14T09:35:57.966Z,100180.34
2022-11-14T09:39:00.739Z,100193.16
2022-11-14T09:42:20.291Z,100199.25
2022-11-14T09:45:25.391Z,100205.19
2022-11-14T09:48:32.160Z,100201.56
2022-11-14T09:51:44.143Z,100199.84
2022-11-14T09:54:53.073Z,100197.81
2022-11-14T09:57:56.515Z,100208.91
2022-11-14T10:01:09.499Z,100205.63
2022-11-14T10:04:25.052Z,100203.13
2022-11-14T10:07:39.076Z,100203.13
2022-11-14T10:10:52.916Z,100207.88
2022-11-14T10:14:20.587Z,100208.88
2022-11-14T10:17:45.791Z,100198.56
2022-11-14T10:20:55.034Z,100198.41
2022-11-14T10:24:07.359Z,100201.34
2022-11-14T10:27:19.523Z,100202.13
2022-11-14T10:30:36.720Z,100188.47
2022-11-14T10:33:51.635Z,100192.09
2022-11-14T10:37:04.188Z,100198.59
2022-11-14T10:40:18.920Z,100207.09
2022-11-14T10:43:28.411Z,100200.09
2022-11-14T10:46:37.963Z,100160.03
2022-11-14T10:49:43.320Z,100183.78
2022-11-14T10:52:47.601Z,100176.22
2022-11-14T10:56:04.324Z,100169.13
2022-11-14T10:59:10.178Z,100165.97
2022-11-14T11:02:13.097Z,100153.06
2022-11-14T11:05:19.555Z,100142.72
2022-11-14T11:08:43.784Z,100142.09
2022-11-14T11:11:57.340Z,100122.28
2022-11-14T11:15:15.987Z,100144.06
2022-11-14T11:18:27.852Z,100139.47
2022-11-14T11:21:48.832Z,100127.22
2022-11-14T11:24:51.682Z,100144.81
2022-11-14T11:28:09.265Z,100133.13
2022-11-14T11:31:12.475Z,100133.81
2022-11-14T11:34:15.271Z,100111.56
2022-11-14T11:37:22.994Z,100120.84
2022-11-14T11:40:28.139Z,100118.53
2022-11-14T11:43:53.921Z,100118.44
2022-11-14T11:47:02.052Z,100103.22
2022-11-14T11:50:06.120Z,100097.03
2022-11-14T11:53:19.433Z,100096.44
2022-11-14T11:56:26.961Z,100112.56
2022-11-14T11:59:35.841Z,100123.00
2022-11-14T12:02:49.502Z,100116.31
2022-11-14T12:06:03.898Z,100103.50
2022-11-14T12:09:16.403Z,100088.38
2022-11-14T12:12:28.662Z,100086.34
2022-11-14T12:15:44.777Z,100096.88
2022-11-14T12:19:10.385Z,100086.41
2022-11-14T12:22:44.809Z,100078.09
2022-11-14T12:26:07.676Z,100093.16
2022-11-14T12:29:32.064Z,100077.75
2022-11-14T12:32:40.051Z,100065.06
2022-11-14T12:35:52.431Z,100058.00
2022-11-14T12:38:56.911Z,100058.81
2022-11-14T12:42:06.489Z,100079.66
2022-11-14T12:45:42.521Z,100051.69
2022-11-14T12:48:46.404Z,100055.81
2022-11-14T12:51:51.300Z,100057.69
2022-11-14T12:54:54.054Z,100051.25
2022-11-14T12:58:07.150Z,100062.75
2022-11-14T13:01:24.471Z,100052.41
2022-11-14T13:04:37.235Z,100053.56
2022-11-14T13:07:49.351Z,100039.75
2022-11-14T13:10:52.259Z,100040.66
2022-11-14T13:14:20.630Z,100028.63
2022-11-14T13:17:45.060Z,100033.66
2022-11-14T13:21:13.662Z,100028.53
2022-11-14T13:24:17.242Z,100039.53
2022-11-14T13:27:52.347Z,100036.47
2022-11-14T13:31:20.829Z,100035.97
2022-11-14T13:34:37.277Z,100031.72
2022-11-14T13:38:09.644Z,100037.09
2022-11-14T13:41:46.691Z,100031.81
2022-11-14T13:45:15.271Z,100023.94
2022-11-14T13:48:47.657Z,100021.59
2022-11-14T13:51:53.783Z,100026.00
2022-11-14T13:54:56.996Z,99999.66
2022-11-14T13:58:15.661Z,100019.19
2022-11-14T14:01:40.091Z,100019.25
2022-11-14T14:04:54.936Z,100015.81
2022-11-14T14:08:12.535Z,100013.53
2022-11-14T14:11:35.093Z,100008.88
2022-11-14T14:14:57.125Z,100004.09
2022-11-14T14:18:09.253Z,100008.00
2022-11-14T14:21:26.657Z,99987.50
2022-11-14T14:24:47.018Z,99987.00
2022-11-14T14:28:02.670Z,99977.63
2022-11-14T14:31:12.148Z,99987.75
2022-11-14T14:34:23.616Z,99984.97
2022-11-14T14:37:29.700Z,99986.72
2022-11-14T14:40:34.466Z,99988.31
2022-11-14T14:43:38.016Z,99992.94
2022-11-14T14:46:40.841Z,99987.53
2022-11-14T14:49:44.284Z,99998.59
2022-11-14T14:52:56.656Z,100007.91
2022-11-14T14:56:02.219Z,100008.78
2022-11-14T14:59:17.304Z,100002.72
2022-11-14T15:02:27.783Z,99996.19
2022-11-14T15:05:31.096Z,100006.06
2022-11-14T15:08:38.707Z,99997.91
2022-11-14T15:11:44.388Z,99972.69
2022-11-14T15:14:48.662Z,99981.91
2022-11-14T15:17:51.865Z,100000.38
2022-11-14T15:21:11.814Z,99995.69
2022-11-14T15:24:18.645Z,99997.31
2022-11-14T15:27:22.168Z,99994.75
2022-11-14T15:30:26.939Z,99985.75
2022-11-14T15:33:32.503Z,99987.50
2022-11-14T15:36:35.327Z,99991.59
2022-11-14T15:39:39.738Z,99990.78
2022-11-14T15:42:42.709Z,99993.50
2022-11-14T15:45:45.475Z,99984.50
2022-11-14T15:48:48.323Z,99992.09
2022-11-14T15:51:54.538Z,99983.09
2022-11-14T15:54:58.639Z,99984.31
2022-11-14T15:58:29.210Z,99987.78
2022-11-14T16:01:26.319Z,99980.66
2022-11-14T16:04:33.265Z,99989.28
2022-11-14T16:07:36.199Z,99994.09
2022-11-14T16:10:40.924Z,99987.94
2022-11-14T16:13:43.655Z,99989.56
2022-11-14T16:16:46.450Z,99994.81
2022-11-14T16:19:49.215Z,99977.28
2022-11-14T16:22:53.946Z,99989.13
2022-11-14T16:25:57.967Z,99989.84
2022-11-14T16:29:00.980Z,99978.75
2022-11-14T16:32:03.738Z,99985.91
2022-11-14T16:35:08.511Z,99945.94
2022-11-14T16:38:13.683Z,99992.63
2022-11-14T16:41:18.272Z,99990.00
2022-11-14T16:44:21.867Z,99996.41
2022-11-14T16:47:24.662Z,100004.91
2022-11-14T16:50:27.791Z,100006.97
2022-11-14T16:53:30.868Z,100001.13
2022-11-14T16:56:35.229Z,100002.44
2022-11-14T16:59:38.059Z,100002.50
2022-11-14T17:02:41.600Z,99993.59
2022-11-14T17:05:45.715Z,99973.22
2022-11-14T17:08:48.729Z,100001.84
2022-11-14T17:11:53.069Z,100003.59
2022-11-14T17:14:55.795Z,100011.00
2022-11-14T17:17:58.891Z,100017.94
2022-11-14T17:21:05.839Z,100000.38
2022-11-14T17:24:08.796Z,100009.81
2022-11-14T17:27:13.774Z,100012.00
2022-11-14T17:30:17.583Z,100011.19
2022-11-14T17:33:20.368Z,100001.19
2022-11-14T17:36:24.149Z,100002.59
2022-11-14T17:39:27.219Z,100008.41
2022-11-14T17:42:31.313Z,100015.13
2022-11-14T17:45:37.879Z,100022.00
2022-11-14T17:48:43.545Z,100006.88
2022-11-14T17:51:46.623Z,100019.47
2022-11-14T17:54:49.321Z,100018.53
2022-11-14T17:57:53.514Z,100015.28
2022-11-14T18:00:58.603Z,100020.88
2022-11-14T18:04:06.112Z,100007.53
2022-11-14T18:07:09.734Z,100016.47
2022-11-14T18:10:12.746Z,100013.97
2022-11-14T18:13:17.121Z,100011.50
2022-11-14T18:16:21.453Z,100018.31
2022-11-14T18:19:24.295Z,99994.34
2022-11-14T18:22:27.709Z,100024.97
2022-11-14T18:25:31.440Z,100018.03
2022-11-14T18:28:35.548Z,100021.13
2022-11-14T18:31:38.237Z,100029.69
2022-11-14T18:34:42.023Z,100025.31
2022-11-14T18:37:44.751Z,100029.38
2022-11-14T18:40:50.643Z,100033.25
2022-11-14T18:43:58.032Z,100043.31
2022-11-14T18:47:00.808Z,100016.09
2022-11-14T18:50:03.914Z,100035.94
2022-11-14T18:53:06.717Z,100036.19
2022-11-14T18:56:11.619Z,100037.69
2022-11-14T18:59:15.684Z,100032.69
2022-11-14T19:02:18.673Z,100023.91
2022-11-14T19:05:21.467Z,100033.81
2022-11-14T19:08:24.230Z,100031.25
2022-11-14T19:11:45.380Z,100023.16
2022-11-14T19:14:51.638Z,100030.53
2022-11-14T19:17:54.433Z,100032.06
2022-11-14T19:20:58.479Z,100023.25
2022-11-14T19:24:01.340Z,100035.31
2022-11-14T19:27:04.251Z,100038.19
2022-11-14T19:30:09.967Z,100046.34
2022-11-14T19:33:12.999Z,100039.34
2022-11-14T19:36:32.332Z,100037.94
2022-11-14T19:39:41.645Z,100026.31
2022-11-14T19:42:45.102Z,100024.94
2022-11-14T19:45:49.796Z,100038.78
2022-11-14T19:48:56.933Z,100027.63
2022-11-14T19:52:00.471Z,100036.44
2022-11-14T19:55:04.576Z,100033.00
2022-11-14T19:58:07.625Z,100019.34
2022-11-14T20:01:13.545Z,100038.81
2022-11-14T20:04:16.363Z,100038.50
2022-11-14T20:07:19.179Z,100045.47
2022-11-14T20:10:22.016Z,100040.06
2022-11-14T20:13:24.938Z,100037.84
2022-11-14T20:16:31.081Z,100051.22
2022-11-14T20:19:33.839Z,100044.06
2022-11-14T20:22:36.611Z,100048.88
2022-11-14T20:25:40.599Z,100059.56
2022-11-14T20:33:07.357Z,100064.00
2022-11-14T20:36:13.835Z,100030.84
2022-11-14T20:39:16.678Z,100046.56
2022-11-14T20:42:19.452Z,100050.94
2022-11-14T20:45:23.989Z,100041.69
2022-11-14T20:48:30.165Z,100056.72
2022-11-14T20:51:33.392Z,100051.16
2022-11-14T20:54:36.667Z,100042.81
2022-11-14T20:57:39.737Z,100062.56
2022-11-14T21:00:45.113Z,100072.94
2022-11-14T21:03:50.087Z,100069.53
2022-11-14T21:06:53.138Z,100073.28
2022-11-14T21:10:09.857Z,100065.81
2022-11-14T21:13:31.209Z,100076.28
2022-11-14T21:16:37.042Z,100052.81
2022-11-14T21:19:41.418Z,100066.28
2022-11-14T21:22:44.442Z,100034.47
2022-11-14T21:25:47.223Z,100053.28
2022-11-14T21:28:52.362Z,100066.81
2022-11-14T21:31:55.693Z,100063.19
2022-11-14T21:34:59.831Z,100067.03
2022-11-14T21:38:03.308Z,100073.44
2022-11-14T21:41:06.651Z,100072.69
2022-11-14T21:44:13.130Z,100072.44
2022-11-14T21:47:16.348Z,100065.22
2022-11-14T21:50:20.540Z,100061.78
2022-11-14T21:53:23.674Z,100074.50
2022-11-14T21:56:29.049Z,100059.75
2022-11-14T21:59:32.127Z,100073.91
2022-11-14T22:02:52.669Z,100069.88
2022-11-14T22:05:59.790Z,100068.72
2022-11-14T22:09:02.582Z,100061.63
2022-11-14T22:12:05.815Z,100072.00
2022-11-14T22:15:09.615Z,100070.25
2022-11-14T22:22:05.982Z,100077.81
2022-11-14T22:25:09.988Z,100086.22
2022-11-14T22:28:12.707Z,100077.53
2022-11-14T22:31:17.205Z,100081.44
2022-11-14T22:34:20.650Z,100078.00
2022-11-14T22:37:24.725Z,100021.97
2022-11-14T22:40:27.698Z,100064.41
2022-11-14T22:43:32.215Z,100071.63
2022-11-14T22:46:35.075Z,100077.03
2022-11-14T22:49:37.826Z,100077.53
2022-11-14T22:52:41.857Z,100084.50
2022-11-14T22:55:48.904Z,100089.34
2022-11-14T22:58:52.037Z,100087.56
2022-11-14T23:01:56.259Z,100093.84
2022-11-14T23:04:59.002Z,100091.38
2022-11-14T23:08:03.469Z,100091.75
2022-11-14T23:11:08.424Z,100087.25
2022-11-14T23:14:14.371Z,100067.41
2022-11-14T23:17:17.240Z,100089.25
2022-11-14T23:20:20.669Z,100081.09
2022-11-14T23:23:24.958Z,100086.75
2022-11-14T23:26:29.020Z,100065.06
2022-11-14T23:29:32.103Z,100083.81
2022-11-14T23:32:35.177Z,100064.25
2022-11-14T23:35:37.908Z,100087.50
2022-11-14T23:38:42.313Z,100081.66
2022-11-14T23:41:45.355Z,100075.69
2022-11-14T23:44:48.441Z,100078.66
2022-11-14T23:47:51.128Z,100079.72
2022-11-14T23:50:55.887Z,100087.00
2022-11-14T23:54:00.323Z,100074.50
2022-11-14T23:57:04.786Z,100071.47
